createdAt,value
2022-08-11T00:04:50.678Z,20.20
2022-08-11T00:11:40.079Z,20.10
2022-08-11T00:18:22.736Z,19.90
2022-08-11T00:25:14.912Z,19.60
2022-08-11T00:32:01.820Z,19.40
2022-08-11T00:38:47.732Z,19.30
2022-08-11T00:45:43.838Z,19.00
2022-08-11T00:52:55.725Z,18.80
2022-08-11T01:00:14.732Z,18.60
2022-08-11T01:08:00.528Z,18.50
2022-08-11T01:14:36.941Z,18.50
2022-08-11T01:21:37.842Z,18.40
2022-08-11T01:28:54.059Z,18.30
2022-08-11T01:35:48.619Z,18.30
2022-08-11T01:43:04.819Z,18.00
2022-08-11T01:50:10.694Z,17.80
2022-08-11T01:57:09.904Z,17.70
2022-08-11T02:03:59.906Z,17.70
2022-08-11T02:11:16.047Z,17.70
2022-08-11T02:18:08.083Z,17.50
2022-08-11T02:25:23.859Z,17.90
2022-08-11T02:32:49.702Z,17.80
2022-08-11T02:39:46.475Z,17.70
2022-08-11T02:46:48.218Z,17.80
2022-08-11T02:53:56.497Z,17.70
2022-08-11T03:00:57.428Z,17.40
2022-08-11T03:08:08.395Z,17.30
2022-08-11T03:15:22.060Z,17.20
2022-08-11T03:22:23.196Z,17.20
2022-08-11T03:29:35.474Z,17.00
2022-08-11T03:37:17.290Z,16.80
2022-08-11T03:44:25.435Z,16.90
2022-08-11T03:51:44.763Z,16.80
2022-08-11T03:58:55.597Z,16.60
2022-08-11T04:06:20.887Z,16.50
2022-08-11T04:13:19.435Z,16.50
2022-08-11T04:20:29.653Z,16.60
2022-08-11T04:27:36.865Z,16.70
2022-08-11T04:34:26.210Z,16.70
2022-08-11T04:41:58.928Z,16.60
2022-08-11T04:49:34.007Z,16.50
2022-08-11T04:56:50.090Z,16.40
2022-08-11T05:04:28.566Z,16.50
2022-08-11T05:11:34.398Z,16.60
2022-08-11T05:18:42.360Z,16.90
2022-08-11T05:26:47.780Z,17.10
2022-08-11T05:33:21.895Z,17.40
2022-08-11T05:40:31.635Z,20.50
2022-08-11T05:47:44.587Z,23.90
2022-08-11T05:54:46.995Z,25.50
2022-08-11T06:01:34.292Z,26.70
2022-08-11T06:08:17.191Z,29.10
2022-08-11T06:15:06.158Z,30.20
2022-08-11T06:21:49.604Z,31.60
2022-08-11T06:28:35.689Z,31.30
2022-08-11T06:35:30.105Z,32.10
2022-08-11T06:42:37.268Z,32.70
2022-08-11T06:49:42.403Z,33.60
2022-08-11T06:56:47.219Z,34.50
2022-08-11T07:03:36.843Z,34.50
2022-08-11T07:10:56.264Z,35.00
2022-08-11T07:17:49.129Z,34.30
2022-08-11T07:25:02.296Z,34.00
2022-08-11T07:31:51.091Z,35.90
2022-08-11T07:38:47.301Z,34.90
2022-08-11T07:45:49.668Z,36.60
2022-08-11T07:52:37.906Z,35.00
2022-08-11T07:59:59.833Z,34.50
2022-08-11T08:07:01.297Z,36.40
2022-08-11T08:14:02.835Z,36.70
2022-08-11T08:20:46.825Z,37.50
2022-08-11T08:27:29.686Z,37.60
2022-08-11T08:34:18.621Z,35.70
2022-08-11T08:41:01.650Z,37.10
2022-08-11T08:47:52.963Z,35.70
2022-08-11T08:54:38.442Z,35.00
2022-08-11T09:01:22.257Z,35.70
2022-08-11T09:08:05.532Z,36.90
2022-08-11T09:15:05.718Z,37.30
2022-08-11T09:22:09.227Z,36.70
2022-08-11T09:28:52.928Z,36.50
2022-08-11T09:35:38.632Z,36.10
2022-08-11T09:42:23.857Z,36.00
2022-08-11T09:49:06.742Z,35.80
2022-08-11T09:55:50.654Z,35.00
2022-08-11T10:02:33.867Z,35.30
2022-08-11T10:09:21.326Z,35.50
2022-08-11T10:16:16.044Z,35.80
2022-08-11T10:23:18.788Z,35.80
2022-08-11T10:30:20.614Z,36.70
2022-08-11T10:37:03.053Z,35.90
2022-08-11T10:44:02.087Z,35.80
2022-08-11T10:51:06.434Z,35.70
2022-08-11T10:58:07.205Z,34.60
2022-08-11T11:05:10.080Z,32.10
2022-08-11T11:12:18.305Z,31.10
2022-08-11T11:19:06.251Z,30.50
2022-08-11T11:26:27.767Z,29.80
2022-08-11T11:33:25.023Z,29.60
2022-08-11T11:40:16.378Z,30.00
2022-08-11T11:47:00.735Z,29.80
2022-08-11T11:53:45.336Z,29.30
2022-08-11T12:00:48.380Z,29.20
2022-08-11T12:07:56.877Z,29.40
2022-08-11T12:14:55.005Z,29.50
2022-08-11T12:21:38.589Z,29.70
2022-08-11T12:28:24.823Z,29.40
2022-08-11T12:35:15.503Z,29.40
2022-08-11T12:42:16.744Z,29.60
2022-08-11T12:49:21.677Z,30.00
2022-08-11T12:56:25.597Z,30.00
2022-08-11T13:03:29.995Z,29.90
2022-08-11T13:10:17.181Z,29.80
2022-08-11T13:17:19.190Z,30.00
2022-08-11T13:24:03.486Z,29.50
2022-08-11T13:31:04.508Z,29.80
2022-08-11T13:38:18.904Z,30.10
2022-08-11T13:44:51.919Z,30.10
2022-08-11T13:51:35.306Z,30.40
2022-08-11T13:58:39.726Z,30.30
2022-08-11T14:05:33.919Z,30.20
2022-08-11T14:12:41.801Z,30.40
2022-08-11T14:19:26.713Z,30.20
2022-08-11T14:26:26.769Z,30.30
2022-08-11T14:33:17.304Z,30.30
2022-08-11T14:40:23.283Z,30.60
2022-08-11T14:47:23.076Z,30.50
2022-08-11T14:54:28.258Z,30.50
2022-08-11T15:01:31.102Z,30.70
2022-08-11T15:08:15.414Z,30.70
2022-08-11T15:15:16.694Z,30.50
2022-08-11T15:22:18.033Z,30.80
2022-08-11T15:29:23.082Z,30.90
2022-08-11T15:36:27.605Z,30.70
2022-08-11T15:43:45.874Z,30.30
2022-08-11T15:50:32.701Z,30.30
2022-08-11T15:57:39.545Z,30.50
2022-08-11T16:04:26.629Z,30.60
2022-08-11T16:11:09.983Z,30.30
2022-08-11T16:18:01.669Z,30.40
2022-08-11T16:27:03.823Z,30.30
2022-08-11T16:32:10.718Z,30.20
2022-08-11T16:38:54.997Z,30.10
2022-08-11T16:45:57.619Z,30.00
2022-08-11T16:52:40.013Z,30.00
2022-08-11T16:59:35.977Z,29.90
2022-08-11T17:06:38.651Z,29.90
2022-08-11T17:13:27.201Z,29.80
2022-08-11T17:20:42.263Z,29.70
2022-08-11T17:27:19.791Z,29.60
2022-08-11T17:34:21.527Z,29.50
2022-08-11T17:41:24.890Z,29.40
2022-08-11T17:48:27.018Z,29.20
2022-08-11T17:55:51.805Z,29.10
2022-08-11T18:02:55.971Z,28.90
2022-08-11T18:09:56.846Z,28.70
2022-08-11T18:17:05.231Z,28.50
2022-08-11T18:24:09.439Z,28.20
2022-08-11T18:31:13.146Z,27.90
2022-08-11T18:38:17.188Z,27.60
2022-08-11T18:45:23.561Z,27.40
2022-08-11T18:52:28.430Z,26.90
2022-08-11T18:59:31.502Z,26.60
2022-08-11T19:06:38.574Z,26.30
2022-08-11T19:13:43.634Z,26.10
2022-08-11T19:20:49.573Z,25.70
2022-08-11T19:27:51.480Z,25.40
2022-08-11T19:34:54.294Z,25.10
2022-08-11T19:41:58.036Z,24.90
2022-08-11T19:49:01.066Z,24.60
2022-08-11T19:56:03.680Z,24.40
2022-08-11T20:03:09.096Z,23.90
2022-08-11T20:10:11.453Z,23.50
2022-08-11T20:17:14.438Z,23.40
2022-08-11T20:24:16.586Z,23.50
2022-08-11T20:31:17.589Z,23.00
2022-08-11T20:38:19.599Z,22.50
2022-08-11T20:45:23.760Z,22.50
2022-08-11T20:52:26.952Z,22.60
2022-08-11T20:59:29.864Z,22.40
2022-08-11T21:06:35.143Z,22.30
2022-08-11T21:13:37.729Z,22.10
2022-08-11T21:20:40.811Z,22.00
2022-08-11T21:27:43.233Z,21.80
2022-08-11T21:34:44.933Z,21.60
2022-08-11T21:41:48.976Z,21.50
2022-08-11T21:48:51.920Z,21.40
2022-08-11T21:55:54.428Z,21.10
2022-08-11T22:02:57.414Z,21.10
2022-08-11T22:09:58.868Z,21.30
2022-08-11T22:17:00.303Z,21.50
2022-08-11T22:24:03.742Z,21.20
2022-08-11T22:31:11.640Z,21.00
2022-08-11T22:38:20.045Z,21.10
2022-08-11T22:45:27.277Z,21.10
2022-08-11T22:52:34.002Z,20.90
2022-08-11T22:59:39.873Z,20.90
2022-08-11T23:15:21.075Z,20.90
2022-08-11T23:22:24.178Z,20.60
2022-08-11T23:29:55.316Z,20.10
2022-08-11T23:36:56.403Z,20.20
2022-08-11T23:43:57.834Z,20.20
2022-08-11T23:50:59.168Z,20.00
2022-08-11T23:58:07.982Z,19.70
